createdAt,value
2018-06-24T00:00:05.455Z,0
2018-06-24T00:00:45.764Z,0
2018-06-24T00:01:26.212Z,0
2018-06-24T00:02:06.612Z,0
2018-06-24T00:02:47.002Z,0
2018-06-24T00:03:27.406Z,0
2018-06-24T00:04:07.795Z,0
2018-06-24T00:04:48.224Z,0
2018-06-24T00:05:28.604Z,0
2018-06-24T00:06:08.991Z,0
2018-06-24T00:06:50.378Z,0
2018-06-24T00:07:30.724Z,0
2018-06-24T00:08:11.128Z,0
2018-06-24T00:08:51.535Z,0
2018-06-24T00:09:31.898Z,0
2018-06-24T00:10:12.349Z,0
2018-06-24T00:10:52.733Z,0
2018-06-24T00:11:33.148Z,0
2018-06-24T00:12:13.588Z,0
2018-06-24T00:12:53.958Z,0
2018-06-24T00:13:34.337Z,0
2018-06-24T00:14:14.773Z,0
2018-06-24T00:14:55.138Z,0
2018-06-24T00:15:35.624Z,0
2018-06-24T00:16:15.942Z,0
2018-06-24T00:16:56.303Z,0
2018-06-24T00:17:36.713Z,0
2018-06-24T00:18:17.151Z,0
2018-06-24T00:18:57.546Z,0
2018-06-24T00:19:37.933Z,0
2018-06-24T00:20:18.338Z,0
2018-06-24T00:20:58.757Z,0
2018-06-24T00:21:39.159Z,0
2018-06-24T00:22:19.595Z,0
2018-06-24T00:22:59.973Z,0
2018-06-24T00:23:40.322Z,0
2018-06-24T00:24:20.732Z,0
2018-06-24T00:25:01.177Z,0
2018-06-24T00:25:41.563Z,0
2018-06-24T00:26:21.899Z,0
2018-06-24T00:27:02.342Z,0
2018-06-24T00:27:42.739Z,0
2018-06-24T00:28:23.153Z,0
2018-06-24T00:29:03.562Z,0
2018-06-24T00:29:43.934Z,0
2018-06-24T00:30:24.385Z,0
2018-06-24T00:31:04.726Z,0
2018-06-24T00:31:45.139Z,0
2018-06-24T00:32:25.589Z,0
2018-06-24T00:33:05.927Z,0
2018-06-24T00:33:46.406Z,0
2018-06-24T00:34:26.767Z,0
2018-06-24T00:35:07.248Z,0
2018-06-24T00:35:47.652Z,0
2018-06-24T00:36:28.047Z,0
2018-06-24T00:37:08.522Z,0
2018-06-24T00:37:48.892Z,0
2018-06-24T00:38:29.281Z,0
2018-06-24T00:39:09.712Z,0
2018-06-24T00:39:50.097Z,0
2018-06-24T00:40:30.496Z,0
2018-06-24T00:41:10.881Z,0
2018-06-24T00:41:51.265Z,0
2018-06-24T00:42:31.646Z,0
2018-06-24T00:43:12.050Z,0
2018-06-24T00:43:52.437Z,0
2018-06-24T00:44:32.861Z,0
2018-06-24T00:45:13.292Z,0
2018-06-24T00:45:53.663Z,0
2018-06-24T00:46:34.050Z,0
2018-06-24T00:47:14.452Z,0
2018-06-24T00:47:54.829Z,0
2018-06-24T00:48:35.240Z,0
2018-06-24T00:49:15.651Z,0
2018-06-24T00:49:56.025Z,0
2018-06-24T00:50:36.535Z,0
2018-06-24T00:51:16.893Z,0
2018-06-24T00:51:57.259Z,0
2018-06-24T00:52:37.616Z,0
2018-06-24T00:53:18.109Z,0
2018-06-24T00:53:58.452Z,0
2018-06-24T00:54:38.845Z,0
2018-06-24T00:55:19.253Z,0
2018-06-24T00:55:59.670Z,0
2018-06-24T00:56:40.060Z,0
2018-06-24T00:57:20.446Z,0
2018-06-24T00:58:00.913Z,0
2018-06-24T00:58:41.269Z,0
2018-06-24T00:59:21.646Z,0
2018-06-24T01:00:02.010Z,0
2018-06-24T01:00:42.422Z,0
2018-06-24T01:01:22.851Z,0
2018-06-24T01:02:03.309Z,0
2018-06-24T01:02:43.784Z,0
2018-06-24T01:03:24.012Z,0
2018-06-24T01:04:04.475Z,0
2018-06-24T01:04:44.859Z,0
2018-06-24T01:05:25.308Z,0
2018-06-24T01:06:05.678Z,0
2018-06-24T01:06:46.052Z,0
2018-06-24T01:07:26.498Z,0
2018-06-24T01:08:06.933Z,0
2018-06-24T01:08:47.293Z,0
2018-06-24T01:09:27.766Z,0
2018-06-24T01:10:08.163Z,0
2018-06-24T01:10:48.599Z,0
2018-06-24T01:11:28.981Z,0
2018-06-24T01:12:09.364Z,0
2018-06-24T01:12:49.803Z,0
2018-06-24T01:13:30.165Z,0
2018-06-24T01:14:10.600Z,0
2018-06-24T01:14:51.101Z,0
2018-06-24T01:15:31.454Z,0
2018-06-24T01:16:11.881Z,0
2018-06-24T01:16:52.295Z,0
2018-06-24T01:17:32.648Z,0
2018-06-24T01:18:13.063Z,0
2018-06-24T01:18:53.492Z,0
2018-06-24T01:19:33.862Z,0
2018-06-24T01:20:14.327Z,0
2018-06-24T01:20:54.724Z,0
2018-06-24T01:21:35.104Z,0
2018-06-24T01:22:15.524Z,0
2018-06-24T01:22:55.911Z,0
2018-06-24T01:23:36.364Z,0
2018-06-24T01:24:16.735Z,0
2018-06-24T01:24:57.107Z,0
2018-06-24T01:25:37.589Z,0
2018-06-24T01:26:17.954Z,0
2018-06-24T01:26:58.316Z,0
2018-06-24T01:27:38.784Z,0
2018-06-24T01:28:19.198Z,0
2018-06-24T01:28:59.566Z,0
2018-06-24T01:29:39.977Z,0
2018-06-24T01:30:20.432Z,0
2018-06-24T01:31:00.824Z,0
2018-06-24T01:31:41.239Z,0
2018-06-24T01:32:21.705Z,0
2018-06-24T01:33:02.063Z,0
2018-06-24T01:33:42.523Z,0
2018-06-24T01:34:22.859Z,0
2018-06-24T01:35:03.279Z,0
2018-06-24T01:35:43.677Z,0
2018-06-24T01:36:24.075Z,0
2018-06-24T01:37:04.431Z,0
2018-06-24T01:37:44.826Z,0
2018-06-24T01:38:25.246Z,0
2018-06-24T01:39:05.666Z,0
2018-06-24T01:39:45.999Z,0
2018-06-24T01:40:26.498Z,0
2018-06-24T01:41:06.894Z,0
2018-06-24T01:41:47.233Z,0
2018-06-24T01:42:27.643Z,0
2018-06-24T01:43:08.081Z,0
2018-06-24T01:43:48.488Z,0
2018-06-24T01:44:28.881Z,0
2018-06-24T01:45:09.362Z,0
2018-06-24T01:45:49.640Z,0
2018-06-24T01:46:30.047Z,0
2018-06-24T01:47:10.455Z,0
2018-06-24T01:47:50.873Z,0
2018-06-24T01:48:31.242Z,0
2018-06-24T01:49:11.683Z,0
2018-06-24T01:49:52.152Z,0
2018-06-24T01:50:32.538Z,0
2018-06-24T01:51:12.955Z,0
2018-06-24T01:51:53.319Z,0
2018-06-24T01:52:33.792Z,0
2018-06-24T01:53:14.162Z,0
2018-06-24T01:53:54.547Z,0
2018-06-24T01:54:34.935Z,0
2018-06-24T01:55:15.415Z,0
2018-06-24T01:55:55.800Z,0
2018-06-24T01:56:36.241Z,0
2018-06-24T01:57:16.630Z,0
2018-06-24T01:57:57.035Z,0
2018-06-24T01:58:37.407Z,0
2018-06-24T01:59:17.818Z,0
2018-06-24T01:59:58.241Z,0
2018-06-24T02:00:38.554Z,0
2018-06-24T02:01:19.020Z,0
2018-06-24T02:10:12.153Z,0
2018-06-24T02:10:52.549Z,0
2018-06-24T02:11:32.951Z,0
2018-06-24T02:12:13.383Z,0
2018-06-24T02:12:53.724Z,0
2018-06-24T02:13:34.201Z,0
2018-06-24T02:14:14.617Z,0
2018-06-24T02:14:54.991Z,0
2018-06-24T02:15:35.374Z,0
2018-06-24T02:16:15.758Z,0
2018-06-24T02:16:56.195Z,0
2018-06-24T02:17:36.562Z,0
2018-06-24T02:18:16.944Z,0
2018-06-24T02:18:57.370Z,0
2018-06-24T02:19:38.478Z,0
2018-06-24T02:20:18.873Z,0
2018-06-24T02:20:59.257Z,0
2018-06-24T02:21:39.707Z,0
2018-06-24T02:22:20.065Z,0
2018-06-24T02:23:00.471Z,0
2018-06-24T02:23:40.881Z,0
2018-06-24T02:24:21.294Z,0
2018-06-24T02:25:01.656Z,0
2018-06-24T02:25:42.111Z,0
2018-06-24T02:26:22.501Z,0
2018-06-24T02:27:02.855Z,0
2018-06-24T02:27:43.335Z,0
2018-06-24T02:28:23.746Z,0
2018-06-24T02:29:04.112Z,0
2018-06-24T02:29:44.501Z,0
2018-06-24T02:30:24.950Z,0
2018-06-24T02:31:05.346Z,0
2018-06-24T02:31:45.735Z,0
2018-06-24T02:32:26.150Z,0
2018-06-24T02:33:06.547Z,0
2018-06-24T02:33:46.976Z,0
2018-06-24T02:34:27.309Z,0
2018-06-24T02:35:07.704Z,0
2018-06-24T02:35:48.116Z,0
2018-06-24T02:36:28.593Z,0
2018-06-24T02:37:08.962Z,0
2018-06-24T02:37:49.299Z,0
2018-06-24T02:38:29.674Z,0
2018-06-24T02:39:10.148Z,0
2018-06-24T02:39:50.553Z,0
2018-06-24T02:40:30.967Z,0
2018-06-24T02:41:11.327Z,0
2018-06-24T02:41:51.780Z,0
2018-06-24T02:42:32.172Z,0
2018-06-24T02:43:12.595Z,0
2018-06-24T02:43:53.000Z,0
2018-06-24T02:44:33.357Z,0
2018-06-24T02:45:13.807Z,0
2018-06-24T02:45:54.245Z,0
2018-06-24T02:46:34.702Z,0
2018-06-24T02:47:15.055Z,0
2018-06-24T02:47:55.460Z,0
2018-06-24T02:48:35.847Z,0
2018-06-24T02:49:16.276Z,0
2018-06-24T02:49:56.637Z,0
2018-06-24T02:50:37.029Z,0
2018-06-24T02:51:17.407Z,0
2018-06-24T02:51:57.837Z,0
2018-06-24T02:52:38.195Z,0
2018-06-24T02:53:18.551Z,0
2018-06-24T02:53:58.992Z,0
2018-06-24T02:54:39.404Z,0
2018-06-24T02:55:19.804Z,0
2018-06-24T02:56:00.165Z,0
2018-06-24T02:56:40.594Z,0
2018-06-24T02:57:20.982Z,0
2018-06-24T02:58:01.388Z,0
2018-06-24T02:58:41.765Z,0
2018-06-24T02:59:22.151Z,0
2018-06-24T03:00:02.624Z,0
2018-06-24T03:00:43.045Z,0
2018-06-24T03:01:23.377Z,0
2018-06-24T03:02:03.753Z,0
2018-06-24T03:02:44.182Z,0
2018-06-24T03:03:24.593Z,0
2018-06-24T03:04:04.966Z,0
2018-06-24T03:04:45.388Z,0
2018-06-24T03:05:25.820Z,0
2018-06-24T03:06:06.231Z,0
2018-06-24T03:06:46.575Z,0
2018-06-24T03:07:26.944Z,0
2018-06-24T03:08:07.390Z,0
2018-06-24T03:08:47.861Z,0
2018-06-24T03:09:28.245Z,0
2018-06-24T03:10:08.647Z,0
2018-06-24T03:10:49.047Z,0
2018-06-24T03:11:29.425Z,0
2018-06-24T03:12:09.871Z,0
2018-06-24T03:12:50.244Z,0
2018-06-24T03:13:30.618Z,0
2018-06-24T03:14:11.042Z,0
2018-06-24T03:14:51.445Z,0
2018-06-24T03:15:31.792Z,0
2018-06-24T03:16:12.267Z,0
2018-06-24T03:16:52.590Z,0
2018-06-24T03:17:33.001Z,0
2018-06-24T03:18:13.428Z,0
2018-06-24T03:18:53.852Z,0
2018-06-24T03:19:34.205Z,0
2018-06-24T03:20:14.669Z,0
2018-06-24T03:20:55.019Z,0
2018-06-24T03:21:35.388Z,0
2018-06-24T03:22:15.819Z,0
2018-06-24T03:22:56.229Z,0
2018-06-24T03:23:36.666Z,0
2018-06-24T03:24:17.029Z,0
2018-06-24T03:24:57.428Z,0
2018-06-24T03:25:37.864Z,0
2018-06-24T03:26:18.286Z,0
2018-06-24T03:26:58.671Z,0
2018-06-24T03:27:39.058Z,0
2018-06-24T03:28:19.458Z,0
2018-06-24T03:28:59.910Z,0
2018-06-24T03:29:40.242Z,0
2018-06-24T03:30:20.757Z,0
2018-06-24T03:31:01.119Z,0
2018-06-24T03:31:41.533Z,0
2018-06-24T03:32:22.004Z,0
2018-06-24T03:33:02.363Z,0
2018-06-24T03:33:42.728Z,0
2018-06-24T03:34:23.171Z,0
2018-06-24T03:35:03.540Z,0
2018-06-24T03:35:43.973Z,0
2018-06-24T03:36:24.383Z,0
2018-06-24T03:37:04.754Z,0
2018-06-24T03:37:45.127Z,0
2018-06-24T03:38:25.537Z,0
2018-06-24T03:39:05.898Z,0
2018-06-24T03:39:46.350Z,0
2018-06-24T03:40:26.744Z,0
2018-06-24T03:41:07.142Z,0
2018-06-24T03:41:47.512Z,0
2018-06-24T03:42:27.948Z,0
2018-06-24T03:43:08.344Z,0
2018-06-24T03:43:48.736Z,0
2018-06-24T03:44:29.192Z,0
2018-06-24T03:45:09.608Z,5
2018-06-24T03:45:49.943Z,5
2018-06-24T03:46:30.413Z,5
2018-06-24T03:47:10.763Z,5
2018-06-24T03:47:51.140Z,5
2018-06-24T03:48:31.591Z,5
2018-06-24T03:49:11.933Z,5
2018-06-24T03:49:52.309Z,5
2018-06-24T03:50:32.757Z,5
2018-06-24T03:51:13.134Z,5
2018-06-24T03:51:53.522Z,5
2018-06-24T03:52:33.901Z,5
2018-06-24T03:53:14.322Z,5
2018-06-24T03:53:54.792Z,5
2018-06-24T03:54:35.115Z,5
2018-06-24T03:55:15.580Z,5
2018-06-24T03:55:56.040Z,5
2018-06-24T03:56:36.333Z,5
2018-06-24T03:57:16.804Z,5
2018-06-24T03:57:57.177Z,5
2018-06-24T03:58:37.606Z,5
2018-06-24T03:59:17.999Z,5
2018-06-24T03:59:58.445Z,5
2018-06-24T04:00:38.811Z,5
2018-06-24T04:01:19.262Z,5
2018-06-24T04:01:59.645Z,5
2018-06-24T04:02:40.020Z,5
2018-06-24T04:03:20.382Z,5
2018-06-24T04:46:24.291Z,110
2018-06-24T04:47:04.686Z,105
2018-06-24T04:47:45.050Z,85
2018-06-24T04:48:25.579Z,55
2018-06-24T04:49:05.961Z,60
2018-06-24T04:49:46.340Z,55
2018-06-24T04:50:26.709Z,55
2018-06-24T04:51:07.120Z,60
2018-06-24T04:51:47.640Z,65
2018-06-24T04:52:27.955Z,75
2018-06-24T04:53:08.332Z,95
2018-06-24T04:53:48.794Z,85
2018-06-24T04:54:29.246Z,80
2018-06-24T04:55:09.629Z,85
2018-06-24T04:55:50.088Z,85
2018-06-24T04:56:30.502Z,90
2018-06-24T04:57:10.880Z,90
2018-06-24T04:57:51.284Z,105
2018-06-24T04:58:31.630Z,120
2018-06-24T04:59:12.042Z,85
2018-06-24T04:59:52.474Z,105
2018-06-24T05:00:32.892Z,130
2018-06-24T05:01:13.311Z,90
2018-06-24T05:01:53.703Z,75
2018-06-24T05:02:34.098Z,65
2018-06-24T05:03:14.582Z,60
2018-06-24T05:03:54.919Z,55
2018-06-24T05:04:35.375Z,50
2018-06-24T05:05:15.720Z,50
2018-06-24T05:05:56.127Z,45
2018-06-24T05:06:36.664Z,45
2018-06-24T05:07:16.961Z,45
2018-06-24T05:07:57.390Z,40
2018-06-24T05:08:37.713Z,40
2018-06-24T05:09:18.109Z,40
2018-06-24T05:09:58.595Z,40
2018-06-24T05:10:38.937Z,40
2018-06-24T05:11:19.366Z,40
2018-06-24T05:11:59.702Z,40
2018-06-24T05:12:40.192Z,40
2018-06-24T05:13:20.556Z,40
2018-06-24T05:14:00.965Z,40
2018-06-24T05:14:41.410Z,45
2018-06-24T05:15:21.824Z,45
2018-06-24T05:16:02.159Z,45
2018-06-24T05:16:42.627Z,40
2018-06-24T05:17:23.009Z,40
2018-06-24T05:18:03.422Z,40
2018-06-24T05:18:43.884Z,40
2018-06-24T05:19:24.266Z,40
2018-06-24T05:20:04.616Z,40
2018-06-24T05:20:44.968Z,40
2018-06-24T05:21:25.405Z,40
2018-06-24T05:22:05.831Z,40
2018-06-24T05:22:46.272Z,45
2018-06-24T05:23:26.683Z,45
2018-06-24T05:24:07.109Z,45
2018-06-24T05:24:47.434Z,45
2018-06-24T05:25:27.881Z,45
2018-06-24T05:26:08.304Z,40
2018-06-24T05:26:48.700Z,40
2018-06-24T05:27:29.139Z,45
2018-06-24T05:28:09.480Z,45
2018-06-24T05:28:49.947Z,45
2018-06-24T05:29:30.326Z,45
2018-06-24T05:30:10.792Z,50
2018-06-24T05:30:51.323Z,55
2018-06-24T05:31:31.581Z,60
2018-06-24T05:32:12.057Z,70
2018-06-24T05:32:53.116Z,70
2018-06-24T05:33:33.330Z,75
2018-06-24T05:34:13.751Z,80
2018-06-24T05:34:54.724Z,85
2018-06-24T05:35:35.125Z,110
2018-06-24T05:36:15.543Z,120
2018-06-24T05:36:55.936Z,85
2018-06-24T05:37:36.332Z,80
2018-06-24T05:38:16.741Z,80
2018-06-24T05:38:57.134Z,255
2018-06-24T05:39:37.571Z,285
2018-06-24T05:40:17.938Z,295
2018-06-24T05:40:58.756Z,295
2018-06-24T05:41:39.154Z,305
2018-06-24T05:42:19.809Z,290
2018-06-24T05:43:00.826Z,300
2018-06-24T05:43:41.219Z,315
2018-06-24T05:44:21.649Z,315
2018-06-24T05:45:02.003Z,315
2018-06-24T05:45:43.050Z,320
2018-06-24T05:46:23.433Z,320
2018-06-24T05:47:03.880Z,315
2018-06-24T05:47:44.317Z,330
2018-06-24T05:48:24.685Z,335
2018-06-24T05:49:05.133Z,345
2018-06-24T05:49:45.509Z,195
2018-06-24T05:50:25.959Z,355
2018-06-24T05:51:07.368Z,360
2018-06-24T05:51:47.559Z,330
2018-06-24T05:52:27.966Z,360
2018-06-24T05:53:08.435Z,365
2018-06-24T05:53:50.287Z,365
2018-06-24T05:54:30.273Z,355
2018-06-24T05:55:10.579Z,370
2018-06-24T05:55:51.034Z,380
2018-06-24T05:56:31.467Z,390
2018-06-24T05:57:12.109Z,370
2018-06-24T05:57:52.380Z,265
2018-06-24T05:58:32.900Z,250
2018-06-24T05:59:13.514Z,320
2018-06-24T05:59:54.027Z,355
2018-06-24T06:00:34.806Z,220
2018-06-24T06:01:15.169Z,190
2018-06-24T06:01:55.750Z,320
2018-06-24T06:02:36.038Z,270
2018-06-24T06:03:16.456Z,315
2018-06-24T06:03:56.846Z,400
2018-06-24T06:04:37.273Z,380
2018-06-24T06:05:17.732Z,420
2018-06-24T06:05:58.216Z,255
2018-06-24T06:06:38.794Z,405
2018-06-24T06:07:19.129Z,460
2018-06-24T06:07:59.559Z,275
2018-06-24T06:08:39.909Z,250
2018-06-24T06:09:20.540Z,370
2018-06-24T06:10:00.965Z,310
2018-06-24T06:10:41.433Z,375
2018-06-24T06:11:22.627Z,250
2018-06-24T06:12:03.109Z,220
2018-06-24T06:12:43.368Z,360
2018-06-24T06:13:23.730Z,510
2018-06-24T06:14:04.232Z,520
2018-06-24T06:14:44.683Z,440
2018-06-24T06:15:25.052Z,300
2018-06-24T06:16:05.489Z,455
2018-06-24T06:16:45.901Z,465
2018-06-24T06:17:26.300Z,450
2018-06-24T06:18:06.732Z,490
2018-06-24T06:18:47.118Z,530
2018-06-24T06:19:27.482Z,450
2018-06-24T06:20:07.859Z,275
2018-06-24T06:20:48.276Z,565
2018-06-24T06:21:28.738Z,605
2018-06-24T06:22:09.210Z,515
2018-06-24T06:22:49.616Z,315
2018-06-24T06:23:30.114Z,860
2018-06-24T06:24:10.454Z,260
2018-06-24T06:24:50.913Z,470
2018-06-24T06:25:31.897Z,800
2018-06-24T06:26:12.410Z,405
2018-06-24T06:26:52.828Z,360
2018-06-24T06:27:33.223Z,505
2018-06-24T06:28:13.628Z,585
2018-06-24T06:28:54.029Z,815
2018-06-24T06:29:34.409Z,1005
2018-06-24T06:30:15.067Z,835
2018-06-24T06:30:55.267Z,750
2018-06-24T06:31:35.661Z,630
2018-06-24T06:32:16.107Z,530
2018-06-24T06:32:56.531Z,230
2018-06-24T06:33:36.918Z,400
2018-06-24T06:34:17.353Z,480
2018-06-24T06:34:57.792Z,630
2018-06-24T06:35:38.193Z,755
2018-06-24T06:36:18.640Z,780
2018-06-24T06:37:00.077Z,830
2018-06-24T06:37:40.633Z,835
2018-06-24T06:38:21.109Z,710
2018-06-24T06:39:01.451Z,780
2018-06-24T06:39:41.870Z,910
2018-06-24T06:40:22.790Z,765
2018-06-24T06:41:03.158Z,750
2018-06-24T06:41:43.608Z,880
2018-06-24T06:42:24.061Z,715
2018-06-24T06:43:04.546Z,715
2018-06-24T06:43:44.825Z,825
2018-06-24T06:44:25.341Z,890
2018-06-24T06:45:06.073Z,730
2018-06-24T06:45:46.351Z,755
2018-06-24T06:46:29.436Z,600
2018-06-24T06:47:09.811Z,200
2018-06-24T06:47:50.312Z,160
2018-06-24T06:48:30.695Z,205
2018-06-24T06:49:11.142Z,140
2018-06-24T06:49:51.558Z,385
2018-06-24T06:50:31.937Z,685
2018-06-24T06:51:12.486Z,435
2018-06-24T06:51:52.798Z,320
2018-06-24T06:52:34.195Z,225
2018-06-24T06:53:14.591Z,280
2018-06-24T06:53:55.568Z,280
2018-06-24T06:54:35.928Z,315
2018-06-24T06:55:16.403Z,225
2018-06-24T06:55:58.020Z,225
2018-06-24T06:56:38.267Z,145
2018-06-24T06:57:18.721Z,125
2018-06-24T06:57:59.165Z,115
2018-06-24T06:58:40.001Z,135
2018-06-24T06:59:20.393Z,175
2018-06-24T07:00:00.878Z,170
2018-06-24T07:00:41.212Z,185
2018-06-24T07:01:21.572Z,180
2018-06-24T07:02:02.090Z,215
2018-06-24T07:02:42.427Z,185
2018-06-24T07:03:23.059Z,270
2018-06-24T07:04:03.368Z,275
2018-06-24T07:04:44.723Z,250
2018-06-24T07:05:25.036Z,275
2018-06-24T07:06:05.519Z,265
2018-06-24T07:06:45.872Z,300
2018-06-24T07:07:27.318Z,240
2018-06-24T07:08:07.985Z,210
2018-06-24T07:08:49.749Z,170
2018-06-24T07:09:29.916Z,160
2018-06-24T07:14:54.610Z,130
2018-06-24T07:15:36.130Z,120
2018-06-24T07:16:16.523Z,125
2018-06-24T07:16:58.050Z,165
2018-06-24T07:17:38.434Z,170
2018-06-24T07:18:18.924Z,155
2018-06-24T07:18:59.311Z,95
2018-06-24T07:19:39.704Z,90
2018-06-24T07:20:20.092Z,155
2018-06-24T07:21:00.537Z,155
2018-06-24T07:21:40.995Z,150
2018-06-24T07:22:21.379Z,170
2018-06-24T07:23:01.729Z,200
2018-06-24T07:23:42.156Z,195
2018-06-24T07:24:29.528Z,190
2018-06-24T07:25:10.226Z,185
2018-06-24T07:25:50.626Z,190
2018-06-24T07:26:32.391Z,160
2018-06-24T07:27:12.739Z,135
2018-06-24T07:27:53.357Z,140
2018-06-24T07:28:33.729Z,135
2018-06-24T07:29:14.198Z,105
2018-06-24T07:29:54.601Z,95
2018-06-24T07:30:35.029Z,90
2018-06-24T07:31:16.048Z,80
2018-06-24T07:31:56.188Z,95
2018-06-24T07:32:36.819Z,80
2018-06-24T07:33:17.282Z,80
2018-06-24T07:33:58.273Z,70
2018-06-24T07:34:39.921Z,70
2018-06-24T07:35:20.347Z,75
2018-06-24T07:36:00.638Z,75
2018-06-24T07:36:41.259Z,65
2018-06-24T07:37:22.890Z,60
2018-06-24T07:38:03.287Z,60
2018-06-24T07:38:44.406Z,50
2018-06-24T07:39:24.691Z,45
2018-06-24T07:40:05.471Z,45
2018-06-24T07:40:45.549Z,45
2018-06-24T07:41:25.991Z,45
2018-06-24T07:42:06.666Z,50
2018-06-24T07:42:47.019Z,55
2018-06-24T07:43:30.228Z,60
2018-06-24T07:44:10.723Z,70
2018-06-24T07:44:51.899Z,85
2018-06-24T07:45:33.612Z,85
2018-06-24T07:46:14.495Z,85
2018-06-24T07:46:56.691Z,80
2018-06-24T07:47:36.959Z,75
2018-06-24T07:48:17.445Z,70
2018-06-24T07:48:57.787Z,65
2018-06-24T07:49:38.193Z,65
2018-06-24T07:50:18.693Z,65
2018-06-24T07:50:59.024Z,75
2018-06-24T07:51:40.947Z,80
2018-06-24T07:55:29.388Z,65
2018-06-24T07:56:09.730Z,60
2018-06-24T07:56:50.155Z,50
2018-06-24T07:57:31.144Z,45
2018-06-24T07:58:10.968Z,40
2018-06-24T07:58:51.554Z,40
2018-06-24T07:59:32.143Z,35
2018-06-24T08:00:12.789Z,35
2018-06-24T08:00:53.553Z,35
2018-06-24T08:01:36.389Z,35
2018-06-24T08:02:16.861Z,35
2018-06-24T08:02:57.539Z,35
2018-06-24T08:03:38.181Z,35
2018-06-24T08:04:19.747Z,35
2018-06-24T08:05:02.704Z,30
2018-06-24T08:05:43.238Z,30
2018-06-24T08:06:24.922Z,30
2018-06-24T08:07:05.958Z,30
2018-06-24T08:07:46.403Z,25
2018-06-24T08:08:29.208Z,25
2018-06-24T08:09:09.448Z,25
2018-06-24T08:09:50.049Z,25
2018-06-24T08:10:30.418Z,25
2018-06-24T08:11:10.884Z,25
2018-06-24T08:11:54.890Z,30
2018-06-24T08:12:39.608Z,30
2018-06-24T08:13:22.182Z,30
2018-06-24T08:14:02.785Z,25
2018-06-24T08:14:43.209Z,25
2018-06-24T08:15:23.809Z,25
2018-06-24T08:16:04.799Z,25
2018-06-24T08:16:46.116Z,25
2018-06-24T08:22:38.370Z,30
2018-06-24T08:23:18.906Z,30
2018-06-24T08:23:59.670Z,30
2018-06-24T08:24:40.574Z,25
2018-06-24T08:28:52.786Z,30
2018-06-24T08:29:33.114Z,30
2018-06-24T08:30:13.661Z,35
2018-06-24T08:30:54.011Z,35
2018-06-24T08:31:34.428Z,35
2018-06-24T08:32:14.839Z,40
2018-06-24T08:32:55.369Z,40
2018-06-24T08:33:35.791Z,40
2018-06-24T08:34:16.164Z,40
2018-06-24T08:34:58.498Z,40
2018-06-24T08:35:39.913Z,45
2018-06-24T08:36:23.438Z,45
2018-06-24T08:37:03.824Z,45
2018-06-24T08:37:44.215Z,50
2018-06-24T08:38:25.186Z,50
2018-06-24T08:39:05.604Z,50
2018-06-24T08:39:45.965Z,45
2018-06-24T08:43:19.510Z,50
2018-06-24T08:44:01.140Z,50
2018-06-24T08:44:42.078Z,50
2018-06-24T08:45:22.451Z,55
2018-06-24T08:46:02.964Z,55
2018-06-24T08:46:43.351Z,60
2018-06-24T08:47:23.784Z,60
2018-06-24T08:48:05.929Z,65
2018-06-24T08:48:46.346Z,75
2018-06-24T08:49:27.669Z,75
2018-06-24T08:50:09.496Z,80
2018-06-24T08:50:49.775Z,80
2018-06-24T08:51:30.719Z,80
2018-06-24T08:52:11.337Z,80
2018-06-24T08:52:52.099Z,80
2018-06-24T08:53:34.132Z,80
2018-06-24T08:54:17.453Z,80
2018-06-24T08:54:56.403Z,80
2018-06-24T09:02:15.335Z,80
2018-06-24T09:02:55.391Z,80
2018-06-24T09:03:39.795Z,80
2018-06-24T09:04:20.187Z,80
2018-06-24T09:05:02.647Z,85
2018-06-24T09:05:43.722Z,90
2018-06-24T09:06:24.148Z,90
2018-06-24T09:07:04.890Z,95
2018-06-24T09:07:49.283Z,95
2018-06-24T09:08:30.105Z,95
2018-06-24T09:09:11.140Z,100
2018-06-24T09:09:51.845Z,100
2018-06-24T09:10:35.481Z,100
2018-06-24T09:12:54.576Z,115
2018-06-24T09:13:35.901Z,110
2018-06-24T09:14:16.704Z,110
2018-06-24T09:14:57.319Z,110
2018-06-24T09:15:39.678Z,115
2018-06-24T09:16:20.307Z,110
2018-06-24T09:17:00.743Z,105
2018-06-24T09:17:41.194Z,100
2018-06-24T09:18:21.554Z,100
2018-06-24T09:19:02.330Z,100
2018-06-24T09:19:42.719Z,105
2018-06-24T09:20:23.195Z,100
2018-06-24T09:21:03.619Z,100
2018-06-24T09:21:44.122Z,100
2018-06-24T09:22:24.771Z,100
2018-06-24T09:23:04.984Z,100
2018-06-24T09:23:45.594Z,95
2018-06-24T09:24:26.103Z,90
2018-06-24T09:25:06.614Z,90
2018-06-24T09:25:47.403Z,95
2018-06-24T09:26:29.579Z,95
2018-06-24T09:27:10.970Z,100
2018-06-24T09:27:53.564Z,105
2018-06-24T09:28:35.290Z,105
2018-06-24T09:30:48.911Z,110
2018-06-24T09:31:29.853Z,110
2018-06-24T09:32:10.840Z,105
2018-06-24T09:32:57.481Z,105
2018-06-24T09:33:40.716Z,100
2018-06-24T09:34:20.631Z,95
2018-06-24T09:35:01.737Z,95
2018-06-24T09:35:42.159Z,95
2018-06-24T09:36:23.223Z,100
2018-06-24T09:37:03.804Z,100
2018-06-24T09:37:44.233Z,105
2018-06-24T09:38:24.870Z,105
2018-06-24T09:39:05.897Z,105
2018-06-24T09:39:47.884Z,100
2018-06-24T09:40:29.743Z,95
2018-06-24T09:41:10.262Z,90
2018-06-24T09:41:51.489Z,90
2018-06-24T09:42:32.888Z,80
2018-06-24T09:43:13.359Z,85
2018-06-24T09:43:53.801Z,85
2018-06-24T09:44:34.191Z,80
2018-06-24T09:45:14.754Z,85
2018-06-24T09:45:55.783Z,85
2018-06-24T09:46:37.631Z,90
2018-06-24T09:47:17.971Z,100
2018-06-24T09:47:58.608Z,100
2018-06-24T09:48:40.770Z,90
2018-06-24T09:50:59.664Z,80
2018-06-24T09:51:40.042Z,80
2018-06-24T09:52:20.453Z,75
2018-06-24T09:53:00.903Z,75
2018-06-24T09:53:41.333Z,75
2018-06-24T09:54:23.445Z,75
2018-06-24T09:55:03.819Z,80
2018-06-24T09:55:44.393Z,90
2018-06-24T09:56:25.475Z,85
2018-06-24T09:57:06.694Z,95
2018-06-24T09:57:48.092Z,105
2018-06-24T09:58:32.205Z,95
2018-06-24T09:59:13.886Z,95
2018-06-24T09:59:58.246Z,90
2018-06-24T10:00:40.487Z,90
2018-06-24T10:01:21.390Z,90
2018-06-24T10:02:05.428Z,90
2018-06-24T10:02:45.124Z,100
2018-06-24T10:03:26.002Z,105
2018-06-24T10:04:06.451Z,100
2018-06-24T10:45:42.207Z,110
2018-06-24T10:46:26.735Z,95
2018-06-24T10:47:07.942Z,80
2018-06-24T10:47:48.315Z,85
2018-06-24T10:48:30.690Z,95
2018-06-24T10:49:12.084Z,110
2018-06-24T10:49:54.419Z,105
2018-06-24T10:50:35.048Z,100
2018-06-24T10:51:16.507Z,85
2018-06-24T10:51:56.865Z,85
2018-06-24T10:52:37.676Z,95
2018-06-24T10:53:19.317Z,95
2018-06-24T10:54:00.417Z,90
2018-06-24T10:54:41.849Z,85
2018-06-24T10:55:22.602Z,90
2018-06-24T10:56:03.903Z,85
2018-06-24T10:56:45.917Z,95
2018-06-24T10:57:29.811Z,90
2018-06-24T10:58:10.298Z,95
2018-06-24T10:58:50.688Z,95
2018-06-24T10:59:33.049Z,95
2018-06-24T11:00:14.763Z,95
2018-06-24T11:00:55.309Z,90
2018-06-24T11:01:36.165Z,90
2018-06-24T11:02:16.532Z,90
2018-06-24T11:02:56.947Z,80
2018-06-24T11:03:37.787Z,70
2018-06-24T11:04:18.470Z,70
2018-06-24T11:04:58.975Z,70
2018-06-24T11:05:40.090Z,70
2018-06-24T11:06:21.921Z,80
2018-06-24T11:07:02.357Z,95
2018-06-24T11:07:43.569Z,95
2018-06-24T11:08:26.103Z,100
2018-06-24T11:09:07.431Z,95
2018-06-24T11:09:47.867Z,100
2018-06-24T11:10:28.246Z,105
2018-06-24T11:11:08.799Z,105
2018-06-24T11:11:50.355Z,110
2018-06-24T11:12:30.714Z,105
2018-06-24T11:13:11.229Z,100
2018-06-24T11:13:51.766Z,95
2018-06-24T11:14:33.184Z,95
2018-06-24T11:15:13.562Z,95
2018-06-24T11:15:54.928Z,100
2018-06-24T11:16:37.882Z,90
2018-06-24T11:17:18.308Z,85
2018-06-24T11:17:58.718Z,95
2018-06-24T11:18:39.178Z,85
2018-06-24T11:19:19.771Z,90
2018-06-24T11:20:00.423Z,95
2018-06-24T11:20:41.308Z,100
2018-06-24T11:21:21.745Z,85
2018-06-24T11:22:02.350Z,85
2018-06-24T11:22:42.615Z,75
2018-06-24T11:23:23.131Z,75
2018-06-24T11:24:03.579Z,70
2018-06-24T11:24:44.064Z,65
2018-06-24T11:25:24.982Z,65
2018-06-24T11:26:05.401Z,65
2018-06-24T11:26:45.806Z,65
2018-06-24T11:27:26.862Z,65
2018-06-24T11:28:08.511Z,70
2018-06-24T11:28:49.302Z,80
2018-06-24T11:29:30.107Z,90
2018-06-24T11:30:12.554Z,105
2018-06-24T11:30:53.093Z,100
2018-06-24T11:31:34.029Z,105
2018-06-24T11:32:14.535Z,110
2018-06-24T11:32:55.540Z,115
2018-06-24T11:33:36.635Z,110
2018-06-24T11:34:17.061Z,110
2018-06-24T11:34:57.668Z,110
2018-06-24T11:35:38.599Z,110
2018-06-24T11:36:19.632Z,110
2018-06-24T11:37:01.017Z,105
2018-06-24T11:37:41.647Z,105
2018-06-24T11:38:22.497Z,100
2018-06-24T11:39:03.350Z,95
2018-06-24T11:39:43.644Z,90
2018-06-24T11:40:24.903Z,80
2018-06-24T11:41:05.383Z,75
2018-06-24T11:41:45.874Z,70
2018-06-24T11:42:26.941Z,70
2018-06-24T11:43:09.022Z,70
2018-06-24T11:43:49.925Z,70
2018-06-24T11:44:31.429Z,70